createdAt,value
2019-03-28T00:00:22.038Z,9.10
2019-03-28T00:01:22.031Z,9.14
2019-03-28T00:02:22.019Z,9.16
2019-03-28T00:03:22.010Z,9.10
2019-03-28T00:04:21.996Z,9.13
2019-03-28T00:05:21.986Z,9.08
2019-03-28T00:06:21.977Z,9.10
2019-03-28T00:07:24.186Z,9.16
2019-03-28T00:08:21.955Z,9.14
2019-03-28T00:09:21.945Z,9.06
2019-03-28T00:10:21.935Z,9.06
2019-03-28T00:11:21.926Z,9.11
2019-03-28T00:12:21.916Z,9.02
2019-03-28T00:13:21.904Z,9.02
2019-03-28T00:14:21.895Z,9.00
2019-03-28T00:15:21.885Z,9.00
2019-03-28T00:16:21.874Z,8.92
2019-03-28T00:17:21.864Z,9.00
2019-03-28T00:18:21.859Z,8.95
2019-03-28T00:19:21.845Z,9.02
2019-03-28T00:20:21.834Z,8.95
2019-03-28T00:21:21.824Z,8.99
2019-03-28T00:22:21.814Z,8.94
2019-03-28T00:23:22.105Z,9.02
2019-03-28T00:24:22.286Z,8.94
2019-03-28T00:25:21.783Z,9.02
2019-03-28T00:26:30.031Z,8.94
2019-03-28T00:27:21.763Z,8.91
2019-03-28T00:28:21.751Z,8.91
2019-03-28T00:29:21.744Z,8.95
2019-03-28T00:30:21.732Z,8.89
2019-03-28T00:31:21.722Z,8.91
2019-03-28T00:32:21.711Z,8.89
2019-03-28T00:33:21.702Z,8.91
2019-03-28T00:34:21.692Z,8.89
2019-03-28T00:35:21.687Z,8.97
2019-03-28T00:36:21.671Z,8.91
2019-03-28T00:37:21.661Z,8.88
2019-03-28T00:38:21.652Z,8.91
2019-03-28T00:39:21.640Z,8.89
2019-03-28T00:40:21.630Z,8.89
2019-03-28T00:41:21.620Z,8.89
2019-03-28T00:42:21.610Z,8.92
2019-03-28T00:43:21.600Z,8.91
2019-03-28T00:44:21.589Z,8.91
2019-03-28T00:45:21.579Z,8.87
2019-03-28T00:46:21.569Z,8.94
2019-03-28T00:47:21.560Z,8.92
2019-03-28T00:48:21.548Z,8.95
2019-03-28T00:49:21.539Z,8.92
2019-03-28T00:50:21.531Z,8.89
2019-03-28T00:51:21.518Z,8.87
2019-03-28T00:52:21.507Z,8.91
2019-03-28T00:53:21.497Z,8.89
2019-03-28T00:54:21.487Z,8.91
2019-03-28T00:55:21.478Z,8.91
2019-03-28T00:56:21.466Z,8.88
2019-03-28T00:57:21.456Z,8.87
2019-03-28T00:58:21.447Z,8.84
2019-03-28T00:59:21.436Z,8.92
2019-03-28T01:00:21.425Z,8.91
2019-03-28T01:01:21.416Z,8.94
2019-03-28T01:02:21.405Z,8.94
2019-03-28T01:03:21.397Z,8.91
2019-03-28T01:04:21.386Z,8.89
2019-03-28T01:05:21.374Z,8.89
2019-03-28T01:06:21.365Z,8.88
2019-03-28T01:07:22.064Z,8.91
2019-03-28T01:08:21.343Z,8.91
2019-03-28T01:09:21.333Z,8.95
2019-03-28T01:10:22.139Z,8.91
2019-03-28T01:11:21.313Z,8.94
2019-03-28T01:12:21.323Z,8.95
2019-03-28T01:13:21.292Z,8.95
2019-03-28T01:14:21.282Z,8.88
2019-03-28T01:15:21.274Z,8.92
2019-03-28T01:16:21.261Z,8.88
2019-03-28T01:17:21.251Z,8.92
2019-03-28T01:18:21.241Z,8.87
2019-03-28T01:19:21.231Z,8.85
2019-03-28T01:20:21.223Z,8.84
2019-03-28T01:21:21.210Z,8.85
2019-03-28T01:22:21.202Z,8.79
2019-03-28T01:23:21.284Z,8.87
2019-03-28T01:24:21.180Z,8.91
2019-03-28T01:25:21.170Z,8.91
2019-03-28T01:26:21.161Z,8.87
2019-03-28T01:27:21.150Z,8.84
2019-03-28T01:28:21.139Z,8.84
2019-03-28T01:29:21.130Z,8.85
2019-03-28T01:30:21.146Z,8.91
2019-03-28T01:31:21.109Z,8.88
2019-03-28T01:32:21.098Z,8.89
2019-03-28T01:33:21.088Z,8.87
2019-03-28T01:34:21.082Z,8.88
2019-03-28T01:35:21.068Z,8.85
2019-03-28T01:36:21.056Z,8.91
2019-03-28T01:37:21.047Z,8.85
2019-03-28T01:38:21.037Z,8.79
2019-03-28T01:39:21.027Z,8.84
2019-03-28T01:40:21.016Z,8.88
2019-03-28T01:41:21.057Z,8.76
2019-03-28T01:42:20.995Z,8.76
2019-03-28T01:43:20.985Z,8.76
2019-03-28T01:44:20.975Z,8.87
2019-03-28T01:45:20.964Z,8.87
2019-03-28T01:46:20.956Z,8.88
2019-03-28T01:47:20.945Z,8.87
2019-03-28T01:48:20.934Z,8.87
2019-03-28T01:49:20.925Z,8.91
2019-03-28T01:50:20.914Z,8.85
2019-03-28T01:51:20.904Z,8.88
2019-03-28T01:52:21.402Z,8.94
2019-03-28T01:53:20.882Z,8.81
2019-03-28T01:54:20.875Z,8.78
2019-03-28T01:55:21.202Z,8.76
2019-03-28T01:56:20.851Z,8.79
2019-03-28T01:57:20.844Z,8.79
2019-03-28T01:58:20.832Z,8.81
2019-03-28T01:59:21.237Z,8.89
2019-03-28T02:00:20.811Z,8.76
2019-03-28T02:01:20.801Z,8.81
2019-03-28T02:02:20.791Z,8.89
2019-03-28T02:03:20.781Z,8.82
2019-03-28T02:04:20.770Z,8.82
2019-03-28T02:05:20.759Z,8.81
2019-03-28T02:06:20.750Z,8.81
2019-03-28T02:07:20.742Z,8.81
2019-03-28T02:08:20.731Z,8.78
2019-03-28T02:09:20.719Z,8.84
2019-03-28T02:10:20.709Z,8.81
2019-03-28T02:11:20.698Z,8.81
2019-03-28T02:12:20.687Z,8.84
2019-03-28T02:13:20.677Z,8.82
2019-03-28T02:14:20.668Z,8.76
2019-03-28T02:15:20.657Z,8.84
2019-03-28T02:16:21.422Z,8.87
2019-03-28T02:17:20.636Z,8.94
2019-03-28T02:18:20.626Z,8.94
2019-03-28T02:19:20.616Z,8.84
2019-03-28T02:20:20.605Z,8.82
2019-03-28T02:21:20.595Z,8.82
2019-03-28T02:22:20.587Z,8.82
2019-03-28T02:23:20.576Z,8.91
2019-03-28T02:24:20.564Z,8.88
2019-03-28T02:25:20.553Z,8.95
2019-03-28T02:26:20.547Z,8.91
2019-03-28T02:27:24.344Z,8.82
2019-03-28T02:28:20.523Z,8.91
2019-03-28T02:29:20.512Z,8.79
2019-03-28T02:30:20.505Z,8.85
2019-03-28T02:31:20.493Z,8.88
2019-03-28T02:32:20.482Z,8.87
2019-03-28T02:33:20.477Z,8.85
2019-03-28T02:34:20.462Z,8.78
2019-03-28T02:35:20.453Z,8.81
2019-03-28T02:36:20.447Z,8.79
2019-03-28T02:37:20.433Z,8.79
2019-03-28T02:38:20.420Z,8.81
2019-03-28T02:39:20.411Z,8.79
2019-03-28T02:40:20.400Z,8.78
2019-03-28T02:41:20.394Z,8.74
2019-03-28T02:42:20.381Z,8.91
2019-03-28T02:43:20.379Z,8.84
2019-03-28T02:44:20.358Z,8.82
2019-03-28T02:45:20.348Z,8.84
2019-03-28T02:46:20.340Z,8.76
2019-03-28T02:47:20.329Z,8.85
2019-03-28T02:48:20.323Z,8.88
2019-03-28T02:49:20.307Z,8.84
2019-03-28T02:50:20.300Z,8.79
2019-03-28T02:51:20.286Z,8.79
2019-03-28T02:52:20.278Z,8.74
2019-03-28T02:53:20.272Z,8.88
2019-03-28T02:54:20.256Z,8.81
2019-03-28T02:55:20.244Z,8.88
2019-03-28T02:56:20.234Z,8.82
2019-03-28T02:57:20.230Z,8.87
2019-03-28T02:58:20.216Z,8.89
2019-03-28T02:59:20.204Z,8.91
2019-03-28T03:00:20.965Z,8.89
2019-03-28T03:01:20.185Z,8.85
2019-03-28T03:02:20.174Z,8.76
2019-03-28T03:03:20.162Z,8.81
2019-03-28T03:04:20.150Z,8.81
2019-03-28T03:05:20.141Z,8.84
2019-03-28T03:06:20.130Z,8.81
2019-03-28T03:07:20.124Z,8.82
2019-03-28T03:08:20.113Z,8.82
2019-03-28T03:09:20.107Z,8.78
2019-03-28T03:10:20.092Z,8.78
2019-03-28T03:11:20.080Z,8.67
2019-03-28T03:12:20.068Z,8.69
2019-03-28T03:13:20.155Z,8.73
2019-03-28T03:14:20.048Z,8.71
2019-03-28T03:15:20.045Z,8.67
2019-03-28T03:16:20.027Z,8.73
2019-03-28T03:17:20.023Z,8.69
2019-03-28T03:18:21.653Z,8.79
2019-03-28T03:19:20.026Z,8.79
2019-03-28T03:20:19.992Z,8.73
2019-03-28T03:21:19.975Z,8.76
2019-03-28T03:22:19.977Z,8.73
2019-03-28T03:23:20.371Z,8.74
2019-03-28T03:24:19.965Z,8.71
2019-03-28T03:25:19.932Z,8.69
2019-03-28T03:26:19.927Z,8.74
2019-03-28T03:27:19.924Z,8.71
2019-03-28T03:28:19.909Z,8.73
2019-03-28T03:29:19.892Z,8.74
2019-03-28T03:30:19.892Z,8.87
2019-03-28T03:31:21.457Z,8.78
2019-03-28T03:32:19.876Z,8.81
2019-03-28T03:33:19.868Z,8.76
2019-03-28T03:34:19.840Z,8.73
2019-03-28T03:35:19.834Z,8.74
2019-03-28T03:36:19.818Z,8.85
2019-03-28T03:37:19.809Z,8.73
2019-03-28T03:38:19.798Z,8.73
2019-03-28T03:39:19.790Z,8.79
2019-03-28T03:40:19.776Z,8.69
2019-03-28T03:41:19.767Z,8.73
2019-03-28T03:42:19.764Z,8.88
2019-03-28T03:43:19.745Z,8.73
2019-03-28T03:44:19.733Z,8.71
2019-03-28T03:45:19.724Z,8.78
2019-03-28T03:46:19.767Z,8.78
2019-03-28T03:47:19.939Z,8.79
2019-03-28T03:48:19.698Z,8.71
2019-03-28T03:49:19.699Z,8.71
2019-03-28T03:50:19.673Z,8.73
2019-03-28T03:51:19.662Z,8.70
2019-03-28T03:52:19.653Z,8.67
2019-03-28T03:53:19.665Z,8.76
2019-03-28T03:54:19.636Z,8.73
2019-03-28T03:55:19.622Z,8.74
2019-03-28T03:56:19.611Z,8.76
2019-03-28T03:57:19.604Z,8.69
2019-03-28T03:58:19.591Z,8.70
2019-03-28T03:59:19.601Z,8.69
2019-03-28T04:00:19.565Z,8.76
2019-03-28T04:01:19.558Z,8.66
2019-03-28T04:02:19.546Z,8.67
2019-03-28T04:03:19.552Z,8.71
2019-03-28T04:04:19.529Z,8.73
2019-03-28T04:05:19.516Z,8.71
2019-03-28T04:06:19.529Z,8.71
2019-03-28T04:07:19.501Z,8.79
2019-03-28T04:08:19.504Z,8.74
2019-03-28T04:09:19.472Z,8.70
2019-03-28T04:10:19.464Z,8.71
2019-03-28T04:11:19.453Z,8.79
2019-03-28T04:12:19.439Z,8.76
2019-03-28T04:13:19.430Z,8.69
2019-03-28T04:14:19.487Z,8.70
2019-03-28T04:15:19.409Z,8.79
2019-03-28T04:16:19.407Z,8.78
2019-03-28T04:17:19.493Z,8.78
2019-03-28T04:18:22.128Z,8.71
2019-03-28T04:19:19.375Z,8.74
2019-03-28T04:20:19.355Z,8.81
2019-03-28T04:21:19.346Z,8.78
2019-03-28T04:22:19.339Z,8.79
2019-03-28T04:23:19.325Z,8.84
2019-03-28T04:24:19.314Z,8.70
2019-03-28T04:25:19.303Z,8.67
2019-03-28T04:26:19.310Z,8.70
2019-03-28T04:27:19.298Z,8.82
2019-03-28T04:28:31.340Z,8.82
2019-03-28T04:29:19.263Z,8.66
2019-03-28T04:30:19.256Z,8.66
2019-03-28T04:31:19.244Z,8.71
2019-03-28T04:32:19.231Z,8.69
2019-03-28T04:33:19.219Z,8.67
2019-03-28T04:34:19.209Z,8.69
2019-03-28T04:35:19.198Z,8.69
2019-03-28T04:36:19.187Z,8.66
2019-03-28T04:37:19.184Z,8.67
2019-03-28T04:38:19.167Z,8.70
2019-03-28T04:39:19.157Z,8.79
2019-03-28T04:40:19.149Z,8.70
2019-03-28T04:41:19.139Z,8.67
2019-03-28T04:42:19.127Z,8.78
2019-03-28T04:43:19.119Z,8.76
2019-03-28T04:44:19.104Z,8.67
2019-03-28T04:45:19.099Z,8.66
2019-03-28T04:46:19.086Z,8.74
2019-03-28T04:47:19.080Z,8.64
2019-03-28T04:48:19.062Z,8.67
2019-03-28T04:49:19.057Z,8.66
2019-03-28T04:50:19.042Z,8.73
2019-03-28T04:51:19.033Z,8.71
2019-03-28T04:52:19.415Z,8.73
2019-03-28T04:53:19.011Z,8.71
2019-03-28T04:54:19.002Z,8.74
2019-03-28T04:55:18.989Z,8.73
2019-03-28T04:56:18.981Z,8.73
2019-03-28T04:57:18.968Z,8.73
2019-03-28T04:58:21.575Z,8.69
2019-03-28T04:59:18.948Z,8.66
2019-03-28T05:00:18.938Z,8.63
2019-03-28T05:01:18.926Z,8.61
2019-03-28T05:02:18.917Z,8.69
2019-03-28T05:03:18.907Z,8.61
2019-03-28T05:04:21.064Z,8.67
2019-03-28T05:05:18.890Z,8.67
2019-03-28T05:06:18.879Z,8.63
2019-03-28T05:07:18.865Z,8.64
2019-03-28T05:08:18.853Z,8.66
2019-03-28T05:09:18.843Z,8.66
2019-03-28T05:10:18.883Z,8.64
2019-03-28T05:11:18.824Z,8.71
2019-03-28T05:12:18.814Z,8.67
2019-03-28T05:13:18.802Z,8.71
2019-03-28T05:14:18.791Z,8.71
2019-03-28T05:15:20.305Z,8.69
2019-03-28T05:16:18.776Z,8.67
2019-03-28T05:17:18.760Z,8.70
2019-03-28T05:18:18.754Z,8.60
2019-03-28T05:19:18.740Z,8.63
2019-03-28T05:20:18.729Z,8.63
2019-03-28T05:21:18.718Z,8.58
2019-03-28T05:22:18.708Z,8.64
2019-03-28T05:23:18.698Z,8.63
2019-03-28T05:24:18.688Z,8.67
2019-03-28T05:25:18.677Z,8.64
2019-03-28T05:26:18.667Z,8.66
2019-03-28T05:27:18.657Z,8.63
2019-03-28T05:28:18.655Z,8.66
2019-03-28T05:29:18.646Z,8.63
2019-03-28T05:30:18.626Z,8.53
2019-03-28T05:31:18.624Z,8.56
2019-03-28T05:32:18.604Z,8.58
2019-03-28T05:33:18.596Z,8.60
2019-03-28T05:34:18.584Z,8.60
2019-03-28T05:35:18.651Z,8.63
2019-03-28T05:36:18.723Z,8.66
2019-03-28T05:37:18.554Z,8.60
2019-03-28T05:38:18.543Z,8.61
2019-03-28T05:39:19.556Z,8.70
2019-03-28T05:40:18.527Z,8.73
2019-03-28T05:41:18.515Z,8.70
2019-03-28T05:42:18.502Z,8.71
2019-03-28T05:43:18.491Z,8.76
2019-03-28T05:44:18.481Z,8.67
2019-03-28T05:45:18.471Z,8.74
2019-03-28T05:46:18.460Z,8.70
2019-03-28T05:47:18.449Z,8.64
2019-03-28T05:48:18.440Z,8.69
2019-03-28T05:49:18.428Z,8.78
2019-03-28T05:50:18.420Z,8.69
2019-03-28T05:51:18.408Z,8.70
2019-03-28T05:52:18.405Z,8.79
2019-03-28T05:53:18.390Z,8.71
2019-03-28T05:54:18.378Z,8.71
2019-03-28T05:55:18.373Z,8.70
2019-03-28T05:56:18.359Z,8.71
2019-03-28T05:57:18.348Z,8.70
2019-03-28T05:58:18.341Z,8.74
2019-03-28T05:59:19.435Z,8.64
2019-03-28T06:00:18.314Z,8.67
2019-03-28T06:01:18.304Z,8.73
2019-03-28T06:02:18.299Z,8.70
2019-03-28T06:03:18.289Z,8.79
2019-03-28T06:04:18.273Z,8.76
2019-03-28T06:05:18.264Z,8.76
2019-03-28T06:06:18.449Z,8.73
2019-03-28T06:07:18.243Z,8.73
2019-03-28T06:08:18.232Z,8.71
2019-03-28T06:09:18.222Z,8.69
2019-03-28T06:10:18.215Z,8.74
2019-03-28T06:11:18.202Z,8.73
2019-03-28T06:12:19.220Z,8.69
2019-03-28T06:13:18.181Z,8.81
2019-03-28T06:14:18.173Z,8.79
2019-03-28T06:15:18.160Z,8.70
2019-03-28T06:16:18.151Z,8.81
2019-03-28T06:17:18.139Z,8.82
2019-03-28T06:18:18.131Z,8.79
2019-03-28T06:19:18.119Z,8.74
2019-03-28T06:20:18.109Z,8.87
2019-03-28T06:21:18.101Z,8.88
2019-03-28T06:22:18.087Z,8.82
2019-03-28T06:23:18.077Z,8.91
2019-03-28T06:24:18.066Z,8.87
2019-03-28T06:25:18.063Z,8.87
2019-03-28T06:26:18.047Z,8.91
2019-03-28T06:27:18.041Z,8.92
2019-03-28T06:28:18.025Z,8.88
2019-03-28T06:29:23.801Z,8.94
2019-03-28T06:30:18.439Z,8.87
2019-03-28T06:31:17.995Z,8.91
2019-03-28T06:32:17.985Z,8.91
2019-03-28T06:33:17.974Z,8.97
2019-03-28T06:34:17.965Z,9.06
2019-03-28T06:35:18.386Z,8.95
2019-03-28T06:36:17.945Z,9.06
2019-03-28T06:37:17.937Z,9.02
2019-03-28T06:38:17.923Z,9.08
2019-03-28T06:39:17.913Z,9.08
2019-03-28T06:40:17.906Z,9.03
2019-03-28T06:41:17.895Z,9.11
2019-03-28T06:42:17.882Z,9.14
2019-03-28T06:43:17.879Z,9.21
2019-03-28T06:44:17.861Z,9.26
2019-03-28T06:45:17.852Z,9.29
2019-03-28T06:46:17.842Z,9.26
2019-03-28T06:47:20.809Z,9.29
2019-03-28T06:48:17.821Z,9.25
2019-03-28T06:49:17.811Z,9.37
2019-03-28T06:50:17.801Z,9.37
2019-03-28T06:51:17.791Z,9.43
2019-03-28T06:52:17.780Z,9.43
2019-03-28T06:53:17.778Z,9.44
2019-03-28T06:54:17.761Z,9.43
2019-03-28T06:55:17.759Z,9.50
2019-03-28T06:56:17.741Z,9.51
2019-03-28T06:57:19.032Z,9.58
2019-03-28T06:58:17.722Z,9.55
2019-03-28T06:59:17.714Z,9.55
2019-03-28T07:00:17.705Z,9.65
2019-03-28T07:01:17.696Z,9.74
2019-03-28T07:02:17.683Z,9.76
2019-03-28T07:03:17.677Z,9.73
2019-03-28T07:04:17.675Z,9.83
2019-03-28T07:05:17.654Z,9.83
2019-03-28T07:06:17.648Z,9.79
2019-03-28T07:07:18.562Z,9.89
2019-03-28T07:08:17.625Z,9.92
2019-03-28T07:09:18.301Z,9.89
2019-03-28T07:10:17.609Z,9.95
2019-03-28T07:11:17.598Z,9.97
2019-03-28T07:12:18.388Z,9.79
2019-03-28T07:13:17.578Z,9.84
2019-03-28T07:14:17.570Z,9.80
2019-03-28T07:15:17.562Z,9.74
2019-03-28T07:16:17.554Z,9.65
2019-03-28T07:17:17.550Z,9.72
2019-03-28T07:18:17.530Z,9.64
2019-03-28T07:19:17.522Z,9.77
2019-03-28T07:20:17.512Z,9.84
2019-03-28T07:21:18.263Z,9.84
2019-03-28T07:22:17.496Z,9.86
2019-03-28T07:23:17.492Z,9.80
2019-03-28T07:24:17.476Z,9.69
2019-03-28T07:25:17.464Z,9.68
2019-03-28T07:26:17.457Z,9.66
2019-03-28T07:27:17.573Z,9.64
2019-03-28T07:28:17.438Z,9.74
2019-03-28T07:29:17.430Z,9.74
2019-03-28T07:30:17.417Z,9.84
2019-03-28T07:31:17.409Z,9.80
2019-03-28T07:32:17.399Z,9.86
2019-03-28T07:33:17.391Z,9.80
2019-03-28T07:34:17.385Z,9.80
2019-03-28T07:35:17.371Z,9.72
2019-03-28T07:36:17.362Z,9.64
2019-03-28T07:37:17.353Z,9.68
2019-03-28T07:38:17.346Z,9.64
2019-03-28T07:39:19.036Z,9.65
2019-03-28T07:40:17.331Z,9.74
2019-03-28T07:41:17.317Z,9.73
2019-03-28T07:42:17.311Z,9.82
2019-03-28T07:43:17.297Z,9.82
2019-03-28T07:44:17.292Z,9.84
2019-03-28T07:45:17.279Z,9.87
2019-03-28T07:46:17.271Z,9.89
2019-03-28T07:47:17.260Z,10.12
2019-03-28T07:48:17.253Z,10.05
2019-03-28T07:49:17.275Z,10.13
2019-03-28T07:50:17.233Z,10.26
2019-03-28T07:51:17.226Z,10.37
2019-03-28T07:52:19.998Z,10.41
2019-03-28T07:53:19.739Z,10.44
2019-03-28T07:54:17.198Z,10.46
2019-03-28T07:55:17.192Z,10.56
2019-03-28T07:56:17.175Z,10.56
2019-03-28T07:57:17.168Z,10.63
2019-03-28T07:58:17.162Z,10.56
2019-03-28T07:59:17.149Z,10.46
2019-03-28T08:00:17.140Z,10.48
2019-03-28T08:01:18.285Z,10.42
2019-03-28T08:02:17.123Z,10.59
2019-03-28T08:03:17.118Z,10.57
2019-03-28T08:04:17.105Z,10.54
2019-03-28T08:05:17.100Z,10.57
2019-03-28T08:06:17.088Z,10.57
2019-03-28T08:07:17.183Z,10.51
2019-03-28T08:08:17.070Z,10.56
2019-03-28T08:09:17.685Z,10.53
2019-03-28T08:10:17.053Z,10.40
2019-03-28T08:11:17.113Z,10.49
2019-03-28T08:12:22.972Z,10.59
2019-03-28T08:13:17.027Z,10.56
2019-03-28T08:14:17.023Z,10.60
2019-03-28T08:15:17.009Z,10.60
2019-03-28T08:16:16.999Z,10.56
2019-03-28T08:17:16.992Z,10.57
2019-03-28T08:18:16.981Z,10.44
2019-03-28T08:19:16.972Z,10.48
2019-03-28T08:20:16.968Z,10.54
2019-03-28T08:21:16.955Z,10.67
2019-03-28T08:22:16.947Z,10.69
2019-03-28T08:23:16.938Z,10.61
2019-03-28T08:24:16.930Z,10.56
2019-03-28T08:25:16.919Z,10.54
2019-03-28T08:26:16.910Z,10.51
2019-03-28T08:27:16.902Z,10.53
2019-03-28T08:28:16.892Z,10.60
2019-03-28T08:29:16.883Z,10.60
2019-03-28T08:30:19.306Z,10.61
2019-03-28T08:31:16.867Z,10.72
2019-03-28T08:32:16.856Z,10.72
2019-03-28T08:33:16.943Z,10.89
2019-03-28T08:34:16.839Z,10.78
2019-03-28T08:35:16.830Z,10.87
2019-03-28T08:36:16.821Z,10.90
2019-03-28T08:37:16.818Z,10.93
2019-03-28T08:38:16.807Z,10.94
2019-03-28T08:39:16.797Z,11.04
2019-03-28T08:40:16.788Z,10.81
2019-03-28T08:41:16.782Z,10.81
2019-03-28T08:42:16.769Z,10.79
2019-03-28T08:43:16.762Z,10.72
2019-03-28T08:44:16.753Z,10.68
2019-03-28T08:45:16.743Z,10.69
2019-03-28T08:46:16.734Z,10.67
2019-03-28T08:47:16.732Z,10.82
2019-03-28T08:48:16.723Z,10.78
2019-03-28T08:49:16.708Z,10.90
2019-03-28T08:50:16.700Z,10.97
2019-03-28T08:51:16.691Z,11.08
2019-03-28T08:52:16.683Z,11.15
2019-03-28T08:53:16.718Z,11.18
2019-03-28T08:54:16.665Z,11.17
2019-03-28T08:55:16.657Z,11.23
2019-03-28T08:56:16.648Z,11.30
2019-03-28T08:57:16.680Z,11.35
2019-03-28T08:58:16.632Z,11.18
2019-03-28T08:59:16.624Z,11.22
2019-03-28T09:00:17.351Z,11.17
2019-03-28T09:01:16.608Z,11.15
2019-03-28T09:02:16.613Z,11.18
2019-03-28T09:03:16.590Z,11.15
2019-03-28T09:04:16.581Z,11.18
2019-03-28T09:05:16.573Z,11.07
2019-03-28T09:06:17.238Z,11.00
2019-03-28T09:07:17.469Z,10.97
2019-03-28T09:08:16.548Z,10.87
2019-03-28T09:09:16.539Z,10.75
2019-03-28T09:10:16.533Z,10.82
2019-03-28T09:11:16.524Z,10.92
2019-03-28T09:12:16.515Z,10.82
2019-03-28T09:13:16.509Z,10.89
2019-03-28T09:14:16.499Z,10.94
2019-03-28T09:15:16.495Z,11.07
2019-03-28T09:16:16.481Z,11.08
2019-03-28T09:17:16.516Z,11.05
2019-03-28T09:18:16.466Z,11.04
2019-03-28T09:19:16.456Z,11.08
2019-03-28T09:20:16.447Z,11.02
2019-03-28T09:21:16.439Z,11.02
2019-03-28T09:22:16.431Z,11.00
2019-03-28T09:23:16.512Z,11.00
2019-03-28T09:24:16.413Z,11.00
2019-03-28T09:25:16.405Z,11.15
2019-03-28T09:26:16.400Z,11.18
2019-03-28T09:27:16.389Z,11.23
2019-03-28T09:28:16.392Z,11.18
2019-03-28T09:29:16.373Z,11.19
2019-03-28T09:30:16.410Z,11.18
2019-03-28T09:31:20.161Z,11.18
2019-03-28T09:32:16.344Z,11.22
2019-03-28T09:33:16.339Z,11.27
2019-03-28T09:34:16.331Z,11.23
2019-03-28T09:35:16.320Z,11.23
2019-03-28T09:36:16.314Z,11.14
2019-03-28T09:37:16.312Z,11.05
2019-03-28T09:38:16.295Z,10.99
2019-03-28T09:39:16.286Z,10.97
2019-03-28T09:40:16.283Z,11.14
2019-03-28T09:41:16.267Z,11.30
2019-03-28T09:42:16.267Z,11.43
2019-03-28T09:43:16.261Z,11.43
2019-03-28T09:44:16.242Z,11.52
2019-03-28T09:45:16.235Z,11.55
2019-03-28T09:46:16.225Z,11.48
2019-03-28T09:47:16.216Z,11.54
2019-03-28T09:48:16.208Z,11.57
2019-03-28T09:49:16.200Z,11.50
2019-03-28T09:50:16.192Z,11.52
2019-03-28T09:51:16.191Z,11.55
2019-03-28T09:52:16.175Z,11.62
2019-03-28T09:53:16.168Z,11.59
2019-03-28T09:54:16.158Z,11.54
2019-03-28T09:55:18.713Z,11.62
2019-03-28T09:56:16.142Z,11.57
2019-03-28T09:57:16.134Z,11.52
2019-03-28T09:58:16.127Z,11.37
2019-03-28T09:59:16.120Z,11.36
2019-03-28T10:00:16.109Z,11.36
2019-03-28T10:01:16.101Z,11.43
2019-03-28T10:02:16.096Z,11.43
2019-03-28T10:03:16.088Z,11.47
2019-03-28T10:04:16.078Z,11.45
2019-03-28T10:05:16.067Z,11.57
2019-03-28T10:06:16.061Z,11.57
2019-03-28T10:07:16.052Z,11.68
2019-03-28T10:08:16.048Z,11.77
2019-03-28T10:09:16.035Z,11.80
2019-03-28T10:10:16.027Z,11.80
2019-03-28T10:11:16.020Z,11.83
2019-03-28T10:12:16.011Z,11.86
2019-03-28T10:13:16.003Z,11.88
2019-03-28T10:14:15.996Z,11.86
2019-03-28T10:15:15.998Z,11.72
2019-03-28T10:16:15.980Z,11.68
2019-03-28T10:17:15.971Z,11.65
2019-03-28T10:18:15.964Z,11.62
2019-03-28T10:19:15.956Z,11.59
2019-03-28T10:20:15.948Z,11.62
2019-03-28T10:21:15.939Z,11.59
2019-03-28T10:22:15.935Z,11.65
2019-03-28T10:23:15.924Z,11.75
2019-03-28T10:24:15.916Z,11.83
2019-03-28T10:25:15.913Z,11.83
2019-03-28T10:26:15.900Z,11.81
2019-03-28T10:27:18.965Z,11.95
2019-03-28T10:28:15.884Z,12.17
2019-03-28T10:29:15.877Z,12.24
2019-03-28T10:30:15.870Z,12.32
2019-03-28T10:31:17.011Z,12.42
2019-03-28T10:32:15.854Z,12.53
2019-03-28T10:33:15.846Z,12.50
2019-03-28T10:34:15.839Z,12.50
2019-03-28T10:35:15.833Z,12.64
2019-03-28T10:36:15.827Z,12.76
2019-03-28T10:37:15.820Z,12.86
2019-03-28T10:38:15.810Z,12.86
2019-03-28T10:39:15.803Z,12.82
2019-03-28T10:40:15.796Z,12.62
2019-03-28T10:41:15.788Z,12.65
2019-03-28T10:42:15.834Z,12.64
2019-03-28T10:43:15.775Z,12.68
2019-03-28T10:44:15.767Z,12.60
2019-03-28T10:45:15.760Z,12.43
2019-03-28T10:46:15.758Z,12.40
2019-03-28T10:47:15.750Z,12.58
2019-03-28T10:48:15.739Z,12.45
2019-03-28T10:49:15.992Z,12.46
2019-03-28T10:50:15.725Z,12.39
2019-03-28T10:51:15.718Z,12.50
2019-03-28T10:52:15.710Z,12.54
2019-03-28T10:53:15.704Z,12.55
2019-03-28T10:54:20.387Z,12.58
2019-03-28T10:55:16.627Z,12.54
2019-03-28T10:56:22.009Z,12.50
2019-03-28T10:57:29.464Z,12.57
2019-03-28T10:58:19.686Z,12.45
2019-03-28T10:59:23.184Z,12.55
2019-03-28T11:00:24.011Z,12.58
2019-03-28T11:01:18.178Z,12.47
2019-03-28T11:02:15.639Z,12.49
2019-03-28T11:03:15.640Z,12.53
2019-03-28T11:04:15.625Z,12.55
2019-03-28T11:05:15.619Z,12.62
2019-03-28T11:06:15.611Z,12.65
2019-03-28T11:07:15.604Z,12.68
2019-03-28T11:08:16.531Z,12.55
2019-03-28T11:09:15.591Z,12.58
2019-03-28T11:10:15.582Z,12.61
2019-03-28T11:11:15.576Z,12.73
2019-03-28T11:12:15.568Z,12.86
2019-03-28T11:13:15.561Z,12.91
2019-03-28T11:14:15.554Z,12.94
2019-03-28T11:15:15.547Z,12.87
2019-03-28T11:16:15.544Z,13.01
2019-03-28T11:17:15.533Z,12.93
2019-03-28T11:18:15.536Z,12.85
2019-03-28T11:19:16.842Z,12.82
2019-03-28T11:20:15.512Z,12.86
2019-03-28T11:21:15.505Z,12.83
2019-03-28T11:22:15.503Z,12.86
2019-03-28T11:23:15.492Z,12.90
2019-03-28T11:24:15.484Z,12.98
2019-03-28T11:25:15.478Z,13.04
2019-03-28T11:26:15.472Z,13.15
2019-03-28T11:27:15.466Z,13.33
2019-03-28T11:28:15.821Z,13.60
2019-03-28T11:29:15.455Z,13.59
2019-03-28T11:30:18.179Z,13.53
2019-03-28T11:31:15.441Z,13.68
2019-03-28T11:32:15.433Z,13.60
2019-03-28T11:33:15.433Z,13.78
2019-03-28T11:34:15.421Z,13.77
2019-03-28T11:35:15.419Z,13.90
2019-03-28T11:36:15.413Z,14.10
2019-03-28T11:37:25.828Z,14.03
2019-03-28T11:38:15.397Z,14.08
2019-03-28T11:39:15.392Z,14.30
2019-03-28T11:40:15.385Z,14.40
2019-03-28T11:41:15.385Z,14.47
2019-03-28T11:42:15.375Z,14.35
2019-03-28T11:43:15.370Z,14.33
2019-03-28T11:44:15.371Z,14.43
2019-03-28T11:45:15.363Z,14.35
2019-03-28T11:46:15.362Z,14.44
2019-03-28T11:47:15.348Z,14.48
2019-03-28T11:48:15.348Z,14.36
2019-03-28T11:49:15.339Z,14.36
2019-03-28T11:50:17.129Z,14.50
2019-03-28T11:51:15.331Z,14.62
2019-03-28T11:52:15.325Z,14.48
2019-03-28T11:53:15.317Z,14.35
2019-03-28T11:54:15.312Z,14.26
2019-03-28T11:55:15.307Z,14.28
2019-03-28T11:56:15.303Z,14.50
2019-03-28T11:57:15.932Z,14.62
2019-03-28T11:58:15.294Z,14.63
2019-03-28T11:59:15.287Z,14.68
2019-03-28T12:00:15.284Z,14.54
2019-03-28T12:01:15.279Z,14.58
2019-03-28T12:02:20.428Z,14.62
2019-03-28T12:03:15.269Z,14.70
2019-03-28T12:04:15.263Z,14.79
2019-03-28T12:05:15.312Z,14.97
2019-03-28T12:06:15.257Z,14.99
2019-03-28T12:07:15.251Z,14.78
2019-03-28T12:08:15.247Z,14.78
2019-03-28T12:09:15.244Z,14.79
2019-03-28T12:10:15.238Z,14.77
2019-03-28T12:11:15.234Z,14.77
2019-03-28T12:12:15.229Z,14.84
2019-03-28T12:13:15.225Z,14.96
2019-03-28T12:14:15.225Z,15.00
2019-03-28T12:15:15.218Z,15.15
2019-03-28T12:16:15.212Z,15.51
2019-03-28T12:17:15.208Z,15.58
2019-03-28T12:18:15.207Z,15.82
2019-03-28T12:19:17.749Z,15.92
2019-03-28T12:20:15.198Z,16.00
2019-03-28T12:21:15.195Z,16.28
2019-03-28T12:22:15.192Z,16.41
2019-03-28T12:23:15.256Z,16.41
2019-03-28T12:24:15.185Z,16.23
2019-03-28T12:25:15.248Z,16.31
2019-03-28T12:26:15.181Z,16.21
2019-03-28T12:27:15.179Z,16.56
2019-03-28T12:28:15.176Z,16.64
2019-03-28T12:29:15.176Z,16.61
2019-03-28T12:30:16.217Z,16.84
2019-03-28T12:31:15.172Z,16.93
2019-03-28T12:32:15.167Z,17.09
2019-03-28T12:33:15.164Z,17.09
2019-03-28T12:34:15.163Z,17.29
2019-03-28T12:35:15.162Z,17.34
2019-03-28T12:36:15.159Z,17.36
2019-03-28T12:37:15.157Z,17.56
2019-03-28T12:38:15.155Z,17.59
2019-03-28T12:39:15.738Z,17.22
2019-03-28T12:40:15.156Z,16.84
2019-03-28T12:41:15.150Z,16.60
2019-03-28T12:42:15.148Z,16.57
2019-03-28T12:43:15.149Z,16.65
2019-03-28T12:44:15.142Z,16.87
2019-03-28T12:45:15.149Z,17.01
2019-03-28T12:46:15.139Z,17.22
2019-03-28T12:47:15.137Z,17.29
2019-03-28T12:48:15.139Z,17.23
2019-03-28T12:49:15.134Z,17.30
2019-03-28T12:50:15.132Z,17.68
2019-03-28T12:51:15.148Z,17.98
2019-03-28T12:52:15.129Z,18.47
2019-03-28T12:53:15.128Z,18.52
2019-03-28T12:54:15.127Z,18.49
2019-03-28T12:55:15.127Z,18.73
2019-03-28T12:56:15.126Z,18.99
2019-03-28T12:57:15.125Z,19.19
2019-03-28T12:58:15.125Z,19.22
2019-03-28T12:59:15.124Z,19.00
2019-03-28T13:00:15.123Z,18.83
2019-03-28T13:01:15.129Z,18.22
2019-03-28T13:02:28.219Z,18.16
2019-03-28T13:03:15.139Z,18.04
2019-03-28T13:04:15.119Z,18.31
2019-03-28T13:05:15.118Z,18.84
2019-03-28T13:06:15.117Z,19.16
2019-03-28T13:07:15.117Z,19.18